Anchorage, AK

8:01 PM AKDT on September 04, 2015 (GMT -0800)
Anchorage | | Change Station
CLOSE
Current Station
Airport
Location: Anchorage,
Elevation: 144 ft
Nearby Weather Stations

Elev 144 ft 61.17 °N, 150.03 °W | Updated 8 minutes ago

Overcast
Overcast
54 °F
Feels Like 54 °F
N
0
Wind Variable Wind from North

Today
High -- | Low -- °F
--% Chance of Precip.
Yesterday
High -- | Low -- °F
Precip. -- in
6:59 AM 8:57 PM
Waning Gibbous, 53% visible
Pressure 29.83 in
Visibility 10.0 miles
Clouds Scattered Clouds 900 ft
Mostly Cloudy 3900 ft
Overcast 5500 ft
Dew Point 48 °F
Humidity 80%
Rainfall 0.12 in
Snow Depth Not available.
UV 0 out of 12
Pollen Not available.
Air Quality Not available.
Flu Activity Not available.
METAR PANC 050353Z 00000KT 10SM SCT009 BKN039 OVC055 12/09 A2982 RMK AO2 SLP100 T01220089
Pressure 29.83 in
Visibility 10.0 miles
Clouds Scattered Clouds 900 ft
Mostly Cloudy 3900 ft
Overcast 5500 ft
Dew Point 48 °F
Humidity 80%
Rainfall 0.12 in
Snow Depth Not available.
UV 0 out of 12
Pollen Not available.
Air Quality Not available.
Flu Activity Not available.
METAR PANC 050353Z 00000KT 10SM SCT009 BKN039 OVC055 12/09 A2982 RMK AO2 SLP100 T01220089

10-Day Weather Forecast

×

Almanac

Astronomy

Sep. 04, 2015 Rise Set
Actual Time
Civil Twilight
Nautical Twilight
Astronomical Twilight
Moon
Length of Visible Light
Length of Day
Tomorrow will be .
, % of the Moon is Illuminated

Today's Extremes

State Highs State Lows

Community

WunderPhotos

Upload Photos

1,852,418 photos uploaded!

WunderBlogs® & News

Nearby

Air Quality

  Air Quality AQ Index Pollutant
Not available.

Snow Depth

Station Depth Elevation

Earthquake Activity

City Distance Mag. Time & Date
Minimum magnitude displayed is 2.5.

Coastal Water Temperatures

Place Temperature

Stations

Nearby Weather Stations

Station Location Temp. Windchill Dew Point Humidity Wind Precip. Elev Updated Type